sensor_id;sensor_type;location;lat;lon;timestamp;temperature;humidity
75451;DHT22;64029;48.244;9.188;2024-02-26T00:00:22;1.90;86.00
75451;DHT22;64029;48.244;9.188;2024-02-26T00:02:50;1.90;86.00
75451;DHT22;64029;48.244;9.188;2024-02-26T00:05:17;1.90;86.10
75451;DHT22;64029;48.244;9.188;2024-02-26T00:07:44;1.90;86.00
75451;DHT22;64029;48.244;9.188;2024-02-26T00:10:11;1.90;86.20
75451;DHT22;64029;48.244;9.188;2024-02-26T00:12:38;1.90;86.10
75451;DHT22;64029;48.244;9.188;2024-02-26T00:15:05;1.90;86.20
75451;DHT22;64029;48.244;9.188;2024-02-26T00:17:32;1.90;86.40
75451;DHT22;64029;48.244;9.188;2024-02-26T00:20:01;1.90;86.40
75451;DHT22;64029;48.244;9.188;2024-02-26T00:22:29;1.90;86.50
75451;DHT22;64029;48.244;9.188;2024-02-26T00:24:56;1.90;86.70
75451;DHT22;64029;48.244;9.188;2024-02-26T00:27:23;1.90;86.90
75451;DHT22;64029;48.244;9.188;2024-02-26T00:29:50;1.90;86.70
75451;DHT22;64029;48.244;9.188;2024-02-26T00:32:17;1.90;86.70
75451;DHT22;64029;48.244;9.188;2024-02-26T00:34:43;2.00;86.90
75451;DHT22;64029;48.244;9.188;2024-02-26T00:37:12;2.00;86.90
75451;DHT22;64029;48.244;9.188;2024-02-26T00:39:38;2.00;87.00
75451;DHT22;64029;48.244;9.188;2024-02-26T00:42:06;2.00;86.90
75451;DHT22;64029;48.244;9.188;2024-02-26T00:44:32;2.00;86.90
75451;DHT22;64029;48.244;9.188;2024-02-26T00:46:59;2.00;86.90
75451;DHT22;64029;48.244;9.188;2024-02-26T00:49:26;2.00;86.90
75451;DHT22;64029;48.244;9.188;2024-02-26T00:51:53;2.00;87.00
75451;DHT22;64029;48.244;9.188;2024-02-26T00:54:21;2.00;87.10
75451;DHT22;64029;48.244;9.188;2024-02-26T00:56:48;2.00;87.30
75451;DHT22;64029;48.244;9.188;2024-02-26T00:59:15;2.00;87.30
75451;DHT22;64029;48.244;9.188;2024-02-26T01:01:41;2.00;87.30
75451;DHT22;64029;48.244;9.188;2024-02-26T01:04:08;2.00;87.50
75451;DHT22;64029;48.244;9.188;2024-02-26T01:06:35;2.00;87.50
75451;DHT22;64029;48.244;9.188;2024-02-26T01:09:02;2.00;87.70
75451;DHT22;64029;48.244;9.188;2024-02-26T01:11:30;2.00;87.80
75451;DHT22;64029;48.244;9.188;2024-02-26T01:13:57;2.00;87.70
75451;DHT22;64029;48.244;9.188;2024-02-26T01:16:24;2.00;87.70
75451;DHT22;64029;48.244;9.188;2024-02-26T01:18:50;2.00;87.70
75451;DHT22;64029;48.244;9.188;2024-02-26T01:21:16;2.00;87.80
75451;DHT22;64029;48.244;9.188;2024-02-26T01:23:43;2.00;88.00
75451;DHT22;64029;48.244;9.188;2024-02-26T01:26:10;2.00;87.80
75451;DHT22;64029;48.244;9.188;2024-02-26T01:28:39;2.00;88.00
75451;DHT22;64029;48.244;9.188;2024-02-26T01:31:05;2.00;88.00
75451;DHT22;64029;48.244;9.188;2024-02-26T01:33:34;2.00;88.10
75451;DHT22;64029;48.244;9.188;2024-02-26T01:36:01;2.00;88.10
75451;DHT22;64029;48.244;9.188;2024-02-26T01:38:28;2.00;88.10
75451;DHT22;64029;48.244;9.188;2024-02-26T01:40:55;2.00;88.10
75451;DHT22;64029;48.244;9.188;2024-02-26T01:43:22;2.10;88.00
75451;DHT22;64029;48.244;9.188;2024-02-26T01:45:50;2.10;88.00
75451;DHT22;64029;48.244;9.188;2024-02-26T01:48:17;2.10;88.10
75451;DHT22;64029;48.244;9.188;2024-02-26T01:50:44;2.10;88.20
75451;DHT22;64029;48.244;9.188;2024-02-26T01:53:11;2.10;88.20
75451;DHT22;64029;48.244;9.188;2024-02-26T01:55:39;2.10;88.40
75451;DHT22;64029;48.244;9.188;2024-02-26T01:58:07;2.10;88.20
75451;DHT22;64029;48.244;9.188;2024-02-26T02:00:34;2.10;88.30
75451;DHT22;64029;48.244;9.188;2024-02-26T02:03:04;2.10;88.50
75451;DHT22;64029;48.244;9.188;2024-02-26T02:05:31;2.10;88.30
75451;DHT22;64029;48.244;9.188;2024-02-26T02:07:59;2.10;88.30
75451;DHT22;64029;48.244;9.188;2024-02-26T02:10:29;2.20;88.30
75451;DHT22;64029;48.244;9.188;2024-02-26T02:12:55;2.20;88.50
75451;DHT22;64029;48.244;9.188;2024-02-26T02:15:23;2.20;88.60
75451;DHT22;64029;48.244;9.188;2024-02-26T02:17:50;2.20;88.70
75451;DHT22;64029;48.244;9.188;2024-02-26T02:20:18;2.20;88.90
75451;DHT22;64029;48.244;9.188;2024-02-26T02:22:47;2.20;88.80
75451;DHT22;64029;48.244;9.188;2024-02-26T02:25:14;2.10;89.20
75451;DHT22;64029;48.244;9.188;2024-02-26T02:27:42;2.20;89.10
75451;DHT22;64029;48.244;9.188;2024-02-26T02:30:11;2.10;88.90
75451;DHT22;64029;48.244;9.188;2024-02-26T02:32:40;2.10;88.80
75451;DHT22;64029;48.244;9.188;2024-02-26T02:35:07;2.20;89.00
75451;DHT22;64029;48.244;9.188;2024-02-26T02:37:34;2.20;88.90
75451;DHT22;64029;48.244;9.188;2024-02-26T02:40:02;2.20;89.00
75451;DHT22;64029;48.244;9.188;2024-02-26T02:42:30;2.20;88.90
75451;DHT22;64029;48.244;9.188;2024-02-26T02:44:57;2.10;88.80
75451;DHT22;64029;48.244;9.188;2024-02-26T02:47:24;2.20;88.90
75451;DHT22;64029;48.244;9.188;2024-02-26T02:49:51;2.20;89.10
75451;DHT22;64029;48.244;9.188;2024-02-26T02:52:18;2.20;89.10
75451;DHT22;64029;48.244;9.188;2024-02-26T02:54:45;2.20;89.10
75451;DHT22;64029;48.244;9.188;2024-02-26T02:57:13;2.20;89.10
75451;DHT22;64029;48.244;9.188;2024-02-26T02:59:40;2.20;89.10
75451;DHT22;64029;48.244;9.188;2024-02-26T03:02:07;2.20;89.30
75451;DHT22;64029;48.244;9.188;2024-02-26T03:04:34;2.20;89.30
75451;DHT22;64029;48.244;9.188;2024-02-26T03:07:01;2.20;89.30
75451;DHT22;64029;48.244;9.188;2024-02-26T03:09:28;2.20;89.40
75451;DHT22;64029;48.244;9.188;2024-02-26T03:11:54;2.20;89.40
75451;DHT22;64029;48.244;9.188;2024-02-26T03:14:23;2.20;89.40
75451;DHT22;64029;48.244;9.188;2024-02-26T03:16:53;2.20;89.30
75451;DHT22;64029;48.244;9.188;2024-02-26T03:19:20;2.20;89.40
75451;DHT22;64029;48.244;9.188;2024-02-26T03:21:47;2.20;89.70
75451;DHT22;64029;48.244;9.188;2024-02-26T03:24:14;2.20;90.10
75451;DHT22;64029;48.244;9.188;2024-02-26T03:26:40;2.20;89.70
75451;DHT22;64029;48.244;9.188;2024-02-26T03:29:07;2.20;89.70
75451;DHT22;64029;48.244;9.188;2024-02-26T03:31:35;2.20;89.60
75451;DHT22;64029;48.244;9.188;2024-02-26T03:34:02;2.20;89.70
75451;DHT22;64029;48.244;9.188;2024-02-26T03:36:29;2.20;89.90
75451;DHT22;64029;48.244;9.188;2024-02-26T03:38:56;2.20;89.80
75451;DHT22;64029;48.244;9.188;2024-02-26T03:41:22;2.20;90.00
75451;DHT22;64029;48.244;9.188;2024-02-26T03:43:49;2.20;90.00
75451;DHT22;64029;48.244;9.188;2024-02-26T03:46:16;2.20;90.00
75451;DHT22;64029;48.244;9.188;2024-02-26T03:48:44;2.30;90.00
75451;DHT22;64029;48.244;9.188;2024-02-26T03:51:11;2.30;90.20
75451;DHT22;64029;48.244;9.188;2024-02-26T03:53:38;2.20;90.00
75451;DHT22;64029;48.244;9.188;2024-02-26T03:56:06;2.30;90.10
75451;DHT22;64029;48.244;9.188;2024-02-26T03:58:33;2.30;90.10
75451;DHT22;64029;48.244;9.188;2024-02-26T04:01:00;2.30;90.10
75451;DHT22;64029;48.244;9.188;2024-02-26T04:03:27;2.30;90.00
75451;DHT22;64029;48.244;9.188;2024-02-26T04:05:55;2.30;90.00
75451;DHT22;64029;48.244;9.188;2024-02-26T04:08:22;2.30;90.00
75451;DHT22;64029;48.244;9.188;2024-02-26T04:10:49;2.30;90.00
75451;DHT22;64029;48.244;9.188;2024-02-26T04:13:17;2.30;90.00
75451;DHT22;64029;48.244;9.188;2024-02-26T04:15:44;2.30;90.00
75451;DHT22;64029;48.244;9.188;2024-02-26T04:18:11;2.30;90.00
75451;DHT22;64029;48.244;9.188;2024-02-26T04:20:39;2.30;90.10
75451;DHT22;64029;48.244;9.188;2024-02-26T04:23:09;2.30;90.00
75451;DHT22;64029;48.244;9.188;2024-02-26T04:25:35;2.30;90.00
75451;DHT22;64029;48.244;9.188;2024-02-26T04:28:02;2.30;90.00
75451;DHT22;64029;48.244;9.188;2024-02-26T04:30:29;2.30;90.00
75451;DHT22;64029;48.244;9.188;2024-02-26T04:32:56;2.30;90.00
75451;DHT22;64029;48.244;9.188;2024-02-26T04:35:23;2.30;90.00
75451;DHT22;64029;48.244;9.188;2024-02-26T04:37:50;2.30;90.00
75451;DHT22;64029;48.244;9.188;2024-02-26T04:40:18;2.30;90.00
75451;DHT22;64029;48.244;9.188;2024-02-26T04:42:45;2.30;90.00
75451;DHT22;64029;48.244;9.188;2024-02-26T04:45:12;2.30;90.00
75451;DHT22;64029;48.244;9.188;2024-02-26T04:47:39;2.30;90.30
75451;DHT22;64029;48.244;9.188;2024-02-26T04:50:06;2.40;90.30
75451;DHT22;64029;48.244;9.188;2024-02-26T04:52:33;2.40;90.20
75451;DHT22;64029;48.244;9.188;2024-02-26T04:55:00;2.40;90.10
75451;DHT22;64029;48.244;9.188;2024-02-26T04:57:28;2.40;90.50
75451;DHT22;64029;48.244;9.188;2024-02-26T04:59:55;2.40;90.20
75451;DHT22;64029;48.244;9.188;2024-02-26T05:02:22;2.40;90.10
75451;DHT22;64029;48.244;9.188;2024-02-26T05:04:49;2.40;90.10
75451;DHT22;64029;48.244;9.188;2024-02-26T05:07:16;2.40;90.10
75451;DHT22;64029;48.244;9.188;2024-02-26T05:09:44;2.40;90.10
75451;DHT22;64029;48.244;9.188;2024-02-26T05:12:10;2.40;90.10
75451;DHT22;64029;48.244;9.188;2024-02-26T05:14:39;2.40;90.20
75451;DHT22;64029;48.244;9.188;2024-02-26T05:17:06;2.40;90.20
75451;DHT22;64029;48.244;9.188;2024-02-26T05:19:33;2.40;90.20
75451;DHT22;64029;48.244;9.188;2024-02-26T05:22:00;2.50;90.20
75451;DHT22;64029;48.244;9.188;2024-02-26T05:24:26;2.40;90.20
75451;DHT22;64029;48.244;9.188;2024-02-26T05:26:54;2.40;90.20
75451;DHT22;64029;48.244;9.188;2024-02-26T05:29:21;2.40;90.20
75451;DHT22;64029;48.244;9.188;2024-02-26T05:31:49;2.40;90.20
75451;DHT22;64029;48.244;9.188;2024-02-26T05:34:16;2.40;90.20
75451;DHT22;64029;48.244;9.188;2024-02-26T05:36:42;2.40;90.10
75451;DHT22;64029;48.244;9.188;2024-02-26T05:39:09;2.40;90.10
75451;DHT22;64029;48.244;9.188;2024-02-26T05:41:37;2.40;90.10
75451;DHT22;64029;48.244;9.188;2024-02-26T05:44:04;2.40;90.10
75451;DHT22;64029;48.244;9.188;2024-02-26T05:46:31;2.30;90.10
75451;DHT22;64029;48.244;9.188;2024-02-26T05:48:59;2.30;90.10
75451;DHT22;64029;48.244;9.188;2024-02-26T05:51:26;2.30;90.40
75451;DHT22;64029;48.244;9.188;2024-02-26T05:53:53;2.30;90.00
75451;DHT22;64029;48.244;9.188;2024-02-26T05:56:21;2.30;90.00
75451;DHT22;64029;48.244;9.188;2024-02-26T05:58:47;2.30;90.10
75451;DHT22;64029;48.244;9.188;2024-02-26T06:01:15;2.20;90.10
75451;DHT22;64029;48.244;9.188;2024-02-26T06:03:42;2.20;90.10
75451;DHT22;64029;48.244;9.188;2024-02-26T06:06:10;2.20;90.10
75451;DHT22;64029;48.244;9.188;2024-02-26T06:08:37;2.20;90.10
75451;DHT22;64029;48.244;9.188;2024-02-26T06:11:05;2.20;90.20
75451;DHT22;64029;48.244;9.188;2024-02-26T06:13:33;2.20;90.20
75451;DHT22;64029;48.244;9.188;2024-02-26T06:16:00;2.20;90.20
75451;DHT22;64029;48.244;9.188;2024-02-26T06:18:26;2.20;90.20
75451;DHT22;64029;48.244;9.188;2024-02-26T06:20:53;2.20;90.20
75451;DHT22;64029;48.244;9.188;2024-02-26T06:23:22;2.20;90.30
75451;DHT22;64029;48.244;9.188;2024-02-26T06:25:49;2.20;90.30
75451;DHT22;64029;48.244;9.188;2024-02-26T06:28:16;2.20;90.30
75451;DHT22;64029;48.244;9.188;2024-02-26T06:30:43;2.20;90.30
75451;DHT22;64029;48.244;9.188;2024-02-26T06:33:10;2.10;90.20
75451;DHT22;64029;48.244;9.188;2024-02-26T06:35:38;2.10;90.20
75451;DHT22;64029;48.244;9.188;2024-02-26T06:38:04;2.10;90.30
75451;DHT22;64029;48.244;9.188;2024-02-26T06:40:33;2.10;90.60
75451;DHT22;64029;48.244;9.188;2024-02-26T06:43:00;2.10;90.20
75451;DHT22;64029;48.244;9.188;2024-02-26T06:45:27;2.10;90.20
75451;DHT22;64029;48.244;9.188;2024-02-26T06:47:54;2.10;90.30
75451;DHT22;64029;48.244;9.188;2024-02-26T06:50:21;2.10;90.30
75451;DHT22;64029;48.244;9.188;2024-02-26T06:52:48;2.10;90.20
75451;DHT22;64029;48.244;9.188;2024-02-26T06:55:15;2.10;90.20
75451;DHT22;64029;48.244;9.188;2024-02-26T06:57:43;2.10;90.30
75451;DHT22;64029;48.244;9.188;2024-02-26T07:00:11;2.10;90.30
75451;DHT22;64029;48.244;9.188;2024-02-26T07:02:41;2.10;90.20
75451;DHT22;64029;48.244;9.188;2024-02-26T07:05:08;2.10;90.20
75451;DHT22;64029;48.244;9.188;2024-02-26T07:07:35;2.10;90.20
75451;DHT22;64029;48.244;9.188;2024-02-26T07:10:02;2.10;90.20
75451;DHT22;64029;48.244;9.188;2024-02-26T07:12:31;2.10;90.30
75451;DHT22;64029;48.244;9.188;2024-02-26T07:14:59;2.10;90.30
75451;DHT22;64029;48.244;9.188;2024-02-26T07:17:26;2.10;90.30
75451;DHT22;64029;48.244;9.188;2024-02-26T07:19:53;2.10;90.30
75451;DHT22;64029;48.244;9.188;2024-02-26T07:22:20;2.20;90.40
75451;DHT22;64029;48.244;9.188;2024-02-26T07:24:47;2.20;90.40
75451;DHT22;64029;48.244;9.188;2024-02-26T07:27:13;2.20;90.30
75451;DHT22;64029;48.244;9.188;2024-02-26T07:29:43;2.20;90.30
75451;DHT22;64029;48.244;9.188;2024-02-26T07:32:11;2.20;90.60
75451;DHT22;64029;48.244;9.188;2024-02-26T07:34:38;2.30;90.70
75451;DHT22;64029;48.244;9.188;2024-02-26T07:37:07;2.30;90.50
75451;DHT22;64029;48.244;9.188;2024-02-26T07:39:34;2.30;90.60
75451;DHT22;64029;48.244;9.188;2024-02-26T07:42:01;2.30;90.60
75451;DHT22;64029;48.244;9.188;2024-02-26T07:44:27;2.40;90.50
75451;DHT22;64029;48.244;9.188;2024-02-26T07:46:54;2.40;91.30
75451;DHT22;64029;48.244;9.188;2024-02-26T07:49:22;2.50;91.40
75451;DHT22;64029;48.244;9.188;2024-02-26T07:51:49;2.50;91.40
75451;DHT22;64029;48.244;9.188;2024-02-26T07:54:16;2.50;91.00
75451;DHT22;64029;48.244;9.188;2024-02-26T07:56:44;2.60;91.10
75451;DHT22;64029;48.244;9.188;2024-02-26T07:59:11;2.60;91.10
75451;DHT22;64029;48.244;9.188;2024-02-26T08:01:38;2.60;91.00
75451;DHT22;64029;48.244;9.188;2024-02-26T08:04:07;2.60;91.00
75451;DHT22;64029;48.244;9.188;2024-02-26T08:06:35;2.60;91.10
75451;DHT22;64029;48.244;9.188;2024-02-26T08:09:02;2.60;90.90
75451;DHT22;64029;48.244;9.188;2024-02-26T08:11:29;2.70;91.00
75451;DHT22;64029;48.244;9.188;2024-02-26T08:13:56;2.70;91.00
75451;DHT22;64029;48.244;9.188;2024-02-26T08:16:24;2.70;91.00
75451;DHT22;64029;48.244;9.188;2024-02-26T08:18:51;2.80;91.10
75451;DHT22;64029;48.244;9.188;2024-02-26T08:21:18;2.80;91.30
75451;DHT22;64029;48.244;9.188;2024-02-26T08:23:46;2.90;91.50
75451;DHT22;64029;48.244;9.188;2024-02-26T08:26:13;2.90;91.50
75451;DHT22;64029;48.244;9.188;2024-02-26T08:28:40;2.90;91.40
75451;DHT22;64029;48.244;9.188;2024-02-26T08:31:06;2.90;91.50
75451;DHT22;64029;48.244;9.188;2024-02-26T08:33:33;2.90;91.40
75451;DHT22;64029;48.244;9.188;2024-02-26T08:36:04;2.90;91.60
75451;DHT22;64029;48.244;9.188;2024-02-26T08:38:31;2.90;91.50
75451;DHT22;64029;48.244;9.188;2024-02-26T08:41:01;3.00;91.70
75451;DHT22;64029;48.244;9.188;2024-02-26T08:43:28;3.10;91.60
75451;DHT22;64029;48.244;9.188;2024-02-26T08:45:56;3.10;91.70
75451;DHT22;64029;48.244;9.188;2024-02-26T08:48:23;3.10;91.70
75451;DHT22;64029;48.244;9.188;2024-02-26T08:50:50;3.10;91.60
75451;DHT22;64029;48.244;9.188;2024-02-26T08:53:17;3.20;91.70
75451;DHT22;64029;48.244;9.188;2024-02-26T08:55:44;3.20;91.60
75451;DHT22;64029;48.244;9.188;2024-02-26T08:58:12;3.30;91.80
75451;DHT22;64029;48.244;9.188;2024-02-26T09:00:38;3.30;91.70
75451;DHT22;64029;48.244;9.188;2024-02-26T09:03:06;3.30;92.10
75451;DHT22;64029;48.244;9.188;2024-02-26T09:05:32;3.40;92.10
75451;DHT22;64029;48.244;9.188;2024-02-26T09:07:59;3.40;92.10
75451;DHT22;64029;48.244;9.188;2024-02-26T09:10:26;3.40;92.40
75451;DHT22;64029;48.244;9.188;2024-02-26T09:12:53;3.50;92.60
75451;DHT22;64029;48.244;9.188;2024-02-26T09:15:22;3.50;92.40
75451;DHT22;64029;48.244;9.188;2024-02-26T09:17:48;3.60;92.50
75451;DHT22;64029;48.244;9.188;2024-02-26T09:20:17;3.60;92.20
75451;DHT22;64029;48.244;9.188;2024-02-26T09:22:45;3.60;92.20
75451;DHT22;64029;48.244;9.188;2024-02-26T09:25:12;3.70;92.20
75451;DHT22;64029;48.244;9.188;2024-02-26T09:27:41;3.90;92.50
75451;DHT22;64029;48.244;9.188;2024-02-26T09:30:09;3.90;92.40
75451;DHT22;64029;48.244;9.188;2024-02-26T09:32:38;4.10;92.40
75451;DHT22;64029;48.244;9.188;2024-02-26T09:35:05;4.20;92.30
75451;DHT22;64029;48.244;9.188;2024-02-26T09:37:32;4.30;92.10
75451;DHT22;64029;48.244;9.188;2024-02-26T09:40:02;4.20;91.80
75451;DHT22;64029;48.244;9.188;2024-02-26T09:42:31;4.30;91.80
75451;DHT22;64029;48.244;9.188;2024-02-26T09:45:00;4.30;91.70
75451;DHT22;64029;48.244;9.188;2024-02-26T09:47:30;4.50;91.50
75451;DHT22;64029;48.244;9.188;2024-02-26T09:50:00;4.50;91.30
75451;DHT22;64029;48.244;9.188;2024-02-26T09:52:28;4.50;91.30
75451;DHT22;64029;48.244;9.188;2024-02-26T09:54:57;4.70;90.80
75451;DHT22;64029;48.244;9.188;2024-02-26T09:57:24;4.90;90.80
75451;DHT22;64029;48.244;9.188;2024-02-26T09:59:53;5.00;90.90
75451;DHT22;64029;48.244;9.188;2024-02-26T10:02:21;5.30;90.30
75451;DHT22;64029;48.244;9.188;2024-02-26T10:04:48;5.30;90.20
75451;DHT22;64029;48.244;9.188;2024-02-26T10:07:17;5.40;90.30
75451;DHT22;64029;48.244;9.188;2024-02-26T10:09:45;5.20;90.60
75451;DHT22;64029;48.244;9.188;2024-02-26T10:12:12;5.40;90.20
75451;DHT22;64029;48.244;9.188;2024-02-26T10:14:41;5.70;89.60
75451;DHT22;64029;48.244;9.188;2024-02-26T10:17:08;5.80;88.40
75451;DHT22;64029;48.244;9.188;2024-02-26T10:19:35;5.90;88.10
75451;DHT22;64029;48.244;9.188;2024-02-26T10:22:02;5.90;87.50
75451;DHT22;64029;48.244;9.188;2024-02-26T10:24:31;6.00;86.60
75451;DHT22;64029;48.244;9.188;2024-02-26T10:26:58;6.00;87.60
75451;DHT22;64029;48.244;9.188;2024-02-26T10:29:25;6.00;87.90
75451;DHT22;64029;48.244;9.188;2024-02-26T10:31:53;6.00;88.30
75451;DHT22;64029;48.244;9.188;2024-02-26T10:34:20;6.00;88.90
75451;DHT22;64029;48.244;9.188;2024-02-26T10:36:47;6.00;89.10
75451;DHT22;64029;48.244;9.188;2024-02-26T10:39:14;6.00;89.10
75451;DHT22;64029;48.244;9.188;2024-02-26T10:41:44;6.10;89.50
75451;DHT22;64029;48.244;9.188;2024-02-26T10:44:11;6.20;88.20
75451;DHT22;64029;48.244;9.188;2024-02-26T10:46:40;6.40;87.50
75451;DHT22;64029;48.244;9.188;2024-02-26T10:49:13;6.60;85.00
75451;DHT22;64029;48.244;9.188;2024-02-26T10:51:44;6.50;86.80
75451;DHT22;64029;48.244;9.188;2024-02-26T10:54:15;6.60;85.40
75451;DHT22;64029;48.244;9.188;2024-02-26T10:56:44;6.90;82.90
75451;DHT22;64029;48.244;9.188;2024-02-26T10:59:12;7.10;82.20
75451;DHT22;64029;48.244;9.188;2024-02-26T11:01:41;6.90;84.90
75451;DHT22;64029;48.244;9.188;2024-02-26T11:04:12;6.90;84.10
75451;DHT22;64029;48.244;9.188;2024-02-26T11:06:39;6.90;85.70
75451;DHT22;64029;48.244;9.188;2024-02-26T11:09:08;6.90;85.10
75451;DHT22;64029;48.244;9.188;2024-02-26T11:11:38;6.90;85.70
75451;DHT22;64029;48.244;9.188;2024-02-26T11:14:09;7.00;85.70
75451;DHT22;64029;48.244;9.188;2024-02-26T11:16:37;7.00;85.60
75451;DHT22;64029;48.244;9.188;2024-02-26T11:19:06;7.00;85.60
75451;DHT22;64029;48.244;9.188;2024-02-26T11:21:33;7.20;83.60
75451;DHT22;64029;48.244;9.188;2024-02-26T11:24:08;7.30;81.20
75451;DHT22;64029;48.244;9.188;2024-02-26T11:26:38;7.40;80.30
75451;DHT22;64029;48.244;9.188;2024-02-26T11:29:08;7.30;82.40
75451;DHT22;64029;48.244;9.188;2024-02-26T11:31:37;7.30;83.50
75451;DHT22;64029;48.244;9.188;2024-02-26T11:34:06;7.30;83.70
75451;DHT22;64029;48.244;9.188;2024-02-26T11:36:33;7.40;83.50
75451;DHT22;64029;48.244;9.188;2024-02-26T11:38:59;7.40;84.10
75451;DHT22;64029;48.244;9.188;2024-02-26T11:41:26;7.40;84.10
75451;DHT22;64029;48.244;9.188;2024-02-26T11:43:58;7.40;84.10
75451;DHT22;64029;48.244;9.188;2024-02-26T11:46:28;7.50;84.50
75451;DHT22;64029;48.244;9.188;2024-02-26T11:48:59;7.70;79.70
75451;DHT22;64029;48.244;9.188;2024-02-26T11:51:27;7.60;82.20
75451;DHT22;64029;48.244;9.188;2024-02-26T11:53:54;7.70;82.40
75451;DHT22;64029;48.244;9.188;2024-02-26T11:56:24;7.70;81.60
75451;DHT22;64029;48.244;9.188;2024-02-26T11:59:00;7.70;82.40
75451;DHT22;64029;48.244;9.188;2024-02-26T12:04:16;7.80;82.90
75451;DHT22;64029;48.244;9.188;2024-02-26T12:06:44;7.90;79.60
75451;DHT22;64029;48.244;9.188;2024-02-26T12:09:11;8.00;78.00
75451;DHT22;64029;48.244;9.188;2024-02-26T12:11:40;8.00;80.90
75451;DHT22;64029;48.244;9.188;2024-02-26T12:14:09;7.90;82.00
75451;DHT22;64029;48.244;9.188;2024-02-26T12:16:38;7.90;82.10
75451;DHT22;64029;48.244;9.188;2024-02-26T12:19:06;7.90;82.50
75451;DHT22;64029;48.244;9.188;2024-02-26T12:21:34;8.00;81.90
75451;DHT22;64029;48.244;9.188;2024-02-26T12:24:10;8.00;81.90
75451;DHT22;64029;48.244;9.188;2024-02-26T12:26:38;8.00;81.40
75451;DHT22;64029;48.244;9.188;2024-02-26T12:29:05;8.00;81.90
75451;DHT22;64029;48.244;9.188;2024-02-26T12:31:32;8.10;81.10
75451;DHT22;64029;48.244;9.188;2024-02-26T12:34:00;8.10;81.60
75451;DHT22;64029;48.244;9.188;2024-02-26T12:36:28;8.20;80.20
75451;DHT22;64029;48.244;9.188;2024-02-26T12:38:54;8.20;80.40
75451;DHT22;64029;48.244;9.188;2024-02-26T12:41:21;8.30;77.50
75451;DHT22;64029;48.244;9.188;2024-02-26T12:43:48;8.40;79.10
75451;DHT22;64029;48.244;9.188;2024-02-26T12:46:15;8.30;80.50
75451;DHT22;64029;48.244;9.188;2024-02-26T12:48:43;8.30;81.00
75451;DHT22;64029;48.244;9.188;2024-02-26T12:51:12;8.40;81.60
75451;DHT22;64029;48.244;9.188;2024-02-26T12:53:41;8.40;79.80
75451;DHT22;64029;48.244;9.188;2024-02-26T12:56:08;8.40;81.10
75451;DHT22;64029;48.244;9.188;2024-02-26T12:58:36;8.40;81.40
75451;DHT22;64029;48.244;9.188;2024-02-26T13:01:04;8.40;82.30
75451;DHT22;64029;48.244;9.188;2024-02-26T13:03:32;8.40;80.30
75451;DHT22;64029;48.244;9.188;2024-02-26T13:05:59;8.50;81.30
75451;DHT22;64029;48.244;9.188;2024-02-26T13:08:27;8.50;78.30
75451;DHT22;64029;48.244;9.188;2024-02-26T13:10:54;8.60;75.60
75451;DHT22;64029;48.244;9.188;2024-02-26T13:13:22;8.70;74.90
75451;DHT22;64029;48.244;9.188;2024-02-26T13:15:49;8.70;74.20
75451;DHT22;64029;48.244;9.188;2024-02-26T13:18:15;8.70;76.50
75451;DHT22;64029;48.244;9.188;2024-02-26T13:20:43;8.80;75.10
75451;DHT22;64029;48.244;9.188;2024-02-26T13:23:12;8.70;78.00
75451;DHT22;64029;48.244;9.188;2024-02-26T13:25:41;8.70;78.50
75451;DHT22;64029;48.244;9.188;2024-02-26T13:28:09;8.70;78.60
75451;DHT22;64029;48.244;9.188;2024-02-26T13:30:36;8.70;78.80
75451;DHT22;64029;48.244;9.188;2024-02-26T13:33:10;8.80;77.30
75451;DHT22;64029;48.244;9.188;2024-02-26T13:35:37;8.80;78.40
75451;DHT22;64029;48.244;9.188;2024-02-26T13:38:04;8.80;78.20
75451;DHT22;64029;48.244;9.188;2024-02-26T13:40:31;8.90;76.60
75451;DHT22;64029;48.244;9.188;2024-02-26T13:42:59;9.00;73.10
75451;DHT22;64029;48.244;9.188;2024-02-26T13:45:26;9.00;75.70
75451;DHT22;64029;48.244;9.188;2024-02-26T13:47:54;9.00;71.60
75451;DHT22;64029;48.244;9.188;2024-02-26T13:50:27;9.00;75.10
75451;DHT22;64029;48.244;9.188;2024-02-26T13:52:54;9.00;76.90
75451;DHT22;64029;48.244;9.188;2024-02-26T13:55:21;9.10;77.20
75451;DHT22;64029;48.244;9.188;2024-02-26T13:57:51;9.20;73.90
75451;DHT22;64029;48.244;9.188;2024-02-26T14:00:20;9.10;74.90
75451;DHT22;64029;48.244;9.188;2024-02-26T14:02:47;9.10;76.30
75451;DHT22;64029;48.244;9.188;2024-02-26T14:05:14;9.20;76.70
75451;DHT22;64029;48.244;9.188;2024-02-26T14:07:42;9.30;72.80
75451;DHT22;64029;48.244;9.188;2024-02-26T14:10:09;9.30;74.70
75451;DHT22;64029;48.244;9.188;2024-02-26T14:12:38;9.30;76.20
75451;DHT22;64029;48.244;9.188;2024-02-26T14:15:07;9.30;74.30
75451;DHT22;64029;48.244;9.188;2024-02-26T14:17:35;9.40;74.40
75451;DHT22;64029;48.244;9.188;2024-02-26T14:20:03;9.40;73.10
75451;DHT22;64029;48.244;9.188;2024-02-26T14:22:30;9.40;74.90
75451;DHT22;64029;48.244;9.188;2024-02-26T14:24:57;9.40;75.60
75451;DHT22;64029;48.244;9.188;2024-02-26T14:27:25;9.40;77.20
75451;DHT22;64029;48.244;9.188;2024-02-26T14:29:51;9.40;76.30
75451;DHT22;64029;48.244;9.188;2024-02-26T14:32:18;9.40;74.20
75451;DHT22;64029;48.244;9.188;2024-02-26T14:34:47;9.40;74.90
75451;DHT22;64029;48.244;9.188;2024-02-26T14:37:13;9.40;75.10
75451;DHT22;64029;48.244;9.188;2024-02-26T14:39:41;9.40;75.30
75451;DHT22;64029;48.244;9.188;2024-02-26T14:42:07;9.40;77.20
75451;DHT22;64029;48.244;9.188;2024-02-26T14:44:34;9.50;74.30
75451;DHT22;64029;48.244;9.188;2024-02-26T14:47:01;9.50;75.00
75451;DHT22;64029;48.244;9.188;2024-02-26T14:49:28;9.50;77.40
75451;DHT22;64029;48.244;9.188;2024-02-26T14:51:58;9.50;78.40
75451;DHT22;64029;48.244;9.188;2024-02-26T14:54:25;9.50;76.00
75451;DHT22;64029;48.244;9.188;2024-02-26T14:56:52;9.50;78.00
75451;DHT22;64029;48.244;9.188;2024-02-26T14:59:19;9.50;78.00
75451;DHT22;64029;48.244;9.188;2024-02-26T15:01:45;9.50;78.90
75451;DHT22;64029;48.244;9.188;2024-02-26T15:04:12;9.50;79.20
75451;DHT22;64029;48.244;9.188;2024-02-26T15:06:39;9.50;75.80
75451;DHT22;64029;48.244;9.188;2024-02-26T15:09:08;9.50;77.60
75451;DHT22;64029;48.244;9.188;2024-02-26T15:11:38;9.40;78.90
75451;DHT22;64029;48.244;9.188;2024-02-26T15:14:05;9.50;77.80
75451;DHT22;64029;48.244;9.188;2024-02-26T15:16:31;9.40;77.40
75451;DHT22;64029;48.244;9.188;2024-02-26T15:18:58;9.50;78.80
75451;DHT22;64029;48.244;9.188;2024-02-26T15:21:25;9.40;72.50
75451;DHT22;64029;48.244;9.188;2024-02-26T15:23:52;9.40;75.90
75451;DHT22;64029;48.244;9.188;2024-02-26T15:26:21;9.40;75.30
75451;DHT22;64029;48.244;9.188;2024-02-26T15:28:48;9.40;76.80
75451;DHT22;64029;48.244;9.188;2024-02-26T15:31:15;9.40;77.30
75451;DHT22;64029;48.244;9.188;2024-02-26T15:33:42;9.30;78.30
75451;DHT22;64029;48.244;9.188;2024-02-26T15:36:09;9.40;78.90
75451;DHT22;64029;48.244;9.188;2024-02-26T15:38:36;9.40;79.00
75451;DHT22;64029;48.244;9.188;2024-02-26T15:41:10;9.30;79.40
75451;DHT22;64029;48.244;9.188;2024-02-26T15:43:39;9.30;79.00
75451;DHT22;64029;48.244;9.188;2024-02-26T15:46:07;9.30;79.70
75451;DHT22;64029;48.244;9.188;2024-02-26T15:48:33;9.30;79.90